D/T METAR WX W/DIR W/SPE G/SPE TEMP DEWP
19/03/19 03:20 EGPB 190320Z AUTO 20015KT 9999 FEW008/// 07/05 Q1016 SSW (200°) 17.3mph 7°C 5°C
19/03/19 02:50 EGPB 190250Z AUTO 20014KT 9999 NCD 07/04 Q1016 SSW (200°) 16.1mph 7°C 4°C
19/03/19 02:20 EGPB 190220Z AUTO 19016KT 9999 NCD 06/03 Q1016 S (190°) 18.4mph 6°C 3°C
19/03/19 01:50 EGPB 190150Z AUTO 20016KT 9999 NCD 07/03 Q1017 SSW (200°) 18.4mph 7°C 3°C
19/03/19 01:20 EGPB 190120Z AUTO 19016KT 9999 NCD 06/03 Q1017 S (190°) 18.4mph 6°C 3°C
19/03/19 00:50 EGPB 190050Z AUTO 20013KT 9999 NCD 06/03 Q1017 SSW (200°) 15.0mph 6°C 3°C
19/03/19 00:20 EGPB 190020Z AUTO 20013KT 9999 NCD 06/02 Q1017 SSW (200°) 15.0mph 6°C 2°C
18/03/19 23:50 EGPB 182350Z AUTO 20013KT 9999 FEW043/// 06/02 Q1018 SSW (200°) 15.0mph 6°C 2°C
18/03/19 23:20 EGPB 182320Z AUTO 20013KT 9999 FEW042/// 06/02 Q1018 SSW (200°) 15.0mph 6°C 2°C
18/03/19 22:50 EGPB 182250Z AUTO 19012KT 9999 NCD 06/02 Q1018 S (190°) 13.8mph 6°C 2°C
18/03/19 22:20 EGPB 182220Z AUTO 19011KT 9999 NCD 06/02 Q1018 S (190°) 12.7mph 6°C 2°C
18/03/19 21:50 EGPB 182150Z AUTO 20010KT 9999 NCD 06/01 Q1018 SSW (200°) 11.5mph 6°C 1°C
18/03/19 21:20 EGPB 182120Z AUTO 20008KT 9999 NCD 06/01 Q1018 SSW (200°) 9.2mph 6°C 1°C
18/03/19 20:50 EGPB 182050Z AUTO 20008KT 9999 NCD 06/01 Q1018 SSW (200°) 9.2mph 6°C 1°C
18/03/19 20:20 EGPB 182020Z AUTO 20007KT 9999 NCD 05/01 Q1018 SSW (200°) 8.1mph 5°C 1°C
18/03/19 19:20 EGPB 181920Z 20005KT CAVOK 05/00 Q1018 NOSIG SSW (200°) 5.8mph 5°C 0°C
18/03/19 18:20 EGPB 181820Z 20003KT CAVOK 05/M01 Q1017 SSW (200°) 3.5mph 5°C -1°C
18/03/19 17:50 EGPB 181750Z 20003KT CAVOK 05/M01 Q1017 NOSIG SSW (200°) 3.5mph 5°C -1°C
18/03/19 17:20 EGPB 181720Z 21004KT CAVOK 06/M01 Q1017 SSW (210°) 4.6mph 6°C -1°C
18/03/19 16:50 EGPB 181650Z 21003KT CAVOK 06/M02 Q1017 SSW (210°) 3.5mph 6°C -2°C
18/03/19 16:20 EGPB 181620Z 23004KT 9999 FEW037 07/M03 Q1017 NOSIG SW (230°) 4.6mph 7°C -3°C
18/03/19 15:50 EGPB 181550Z 23003KT 9999 FEW037 07/M03 Q1016 SW (230°) 3.5mph 7°C -3°C
18/03/19 15:20 EGPB 181520Z 25003KT CAVOK 07/M03 Q1016 WSW (250°) 3.5mph 7°C -3°C
18/03/19 14:50 EGPB 181450Z VRB02KT CAVOK 07/M02 Q1016 N (0°) 2.3mph 7°C -2°C
18/03/19 14:20 EGPB 181420Z VRB01KT CAVOK 07/M02 Q1016 NOSIG N (0°) 1.2mph 7°C -2°C
18/03/19 13:50 EGPB 181350Z 26004KT CAVOK 07/M03 Q1015 W (260°) 4.6mph 7°C -3°C
18/03/19 13:20 EGPB 181320Z 27004KT CAVOK 07/M02 Q1015 W (270°) 4.6mph 7°C -2°C
18/03/19 12:50 EGPB 181250Z VRB02KT CAVOK 07/M03 Q1015 N (0°) 2.3mph 7°C -3°C
18/03/19 11:50 EGPB 181150Z VRB03KT 9999 FEW040 07/M03 Q1015 N (0°) 3.5mph 7°C -3°C
18/03/19 11:20 EGPB 181120Z 34004KT 280V020 9999 FEW041 07/M03 Q1014 NNW (340°) 4.6mph 7°C -3°C
18/03/19 10:50 EGPB 181050Z 32004KT 290V360 9999 FEW040 07/M03 Q1014 NW (320°) 4.6mph 7°C -3°C
18/03/19 10:20 EGPB 181020Z 34005KT 300V010 9999 FEW024 06/M03 Q1014 NOSIG NNW (340°) 5.8mph 6°C -3°C
18/03/19 09:50 EGPB 180950Z 35006KT 300V020 9999 FEW024 06/M03 Q1013 N (350°) 6.9mph 6°C -3°C
18/03/19 09:20 EGPB 180920Z 35006KT 9999 FEW024 06/M02 Q1013 NOSIG N (350°) 6.9mph 6°C -2°C
18/03/19 08:50 EGPB 180850Z 33006KT 9999 FEW025 06/M03 Q1013 NNW (330°) 6.9mph 6°C -3°C
18/03/19 08:20 EGPB 180820Z 32007KT 9999 FEW035 05/M03 Q1012 NW (320°) 8.1mph 5°C -3°C
18/03/19 07:50 EGPB 180750Z 32006KT 9999 FEW040 05/M03 Q1012 NOSIG NW (320°) 6.9mph 5°C -3°C
18/03/19 06:50 EGPB 180650Z 01005KT 9999 SCT041 04/M03 Q1011 N (10°) 5.8mph 4°C -3°C
18/03/19 05:50 EGPB 180550Z AUTO 34007KT 9999 BKN043/// 04/M04 Q1010 NNW (340°) 8.1mph 4°C -4°C
18/03/19 05:20 EGPB 180520Z AUTO 33010KT 9999 OVC040/// 04/M04 Q1010 NNW (330°) 11.5mph 4°C -4°C
18/03/19 04:50 EGPB 180450Z AUTO 33010KT 9999 OVC037/// 05/M03 Q1009 NNW (330°) 11.5mph 5°C -3°C
18/03/19 04:20 EGPB 180420Z AUTO 35008KT 9999 OVC037/// 04/M02 Q1009 N (350°) 9.2mph 4°C -2°C
18/03/19 03:20 EGPB 180320Z AUTO 35009KT 9999 OVC036/// 04/M02 Q1009 N (350°) 10.4mph 4°C -2°C
18/03/19 02:50 EGPB 180250Z AUTO 34012KT 9999 BKN041/// 05/M03 Q1008 NNW (340°) 13.8mph 5°C -3°C
18/03/19 02:20 EGPB 180220Z AUTO 33012KT 9999 BKN042/// 04/M03 Q1008 NNW (330°) 13.8mph 4°C -3°C
18/03/19 01:50 EGPB 180150Z AUTO 33015KT 9999 SCT035/// BKN045/// 05/M03 Q1008 NNW (330°) 17.3mph 5°C -3°C
18/03/19 01:20 EGPB 180120Z AUTO 34013KT 9999 BKN035/// 05/M02 Q1007 NNW (340°) 15.0mph 5°C -2°C
18/03/19 00:50 EGPB 180050Z AUTO 34013KT 9999 FEW027/// BKN045/// 04/M00 Q1007 NNW (340°) 15.0mph 4°C 0°C
18/03/19 00:20 EGPB 180020Z AUTO 35015KT 9999 BKN027/// BKN044/// 04/M01 Q1006 N (350°) 17.3mph 4°C -1°C
17/03/19 23:50 EGPB 172350Z AUTO 34012KT 9999 FEW023/// SCT048/// 04/M00 Q1006 NNW (340°) 13.8mph 4°C 0°C
17/03/19 23:20 EGPB 172320Z AUTO 34014KT 9999 BKN032/// 04/M02 Q1006 NNW (340°) 16.1mph 4°C -2°C
17/03/19 22:50 EGPB 172250Z AUTO 34016KT 9999 OVC036/// 05/M02 Q1005 NNW (340°) 18.4mph 5°C -2°C
17/03/19 22:20 EGPB 172220Z AUTO 34016KT 9999 SCT044/// 04/M03 Q1005 NNW (340°) 18.4mph 4°C -3°C
17/03/19 21:50 EGPB 172150Z AUTO 35016KT 9999 FEW048/// 04/M04 Q1004 N (350°) 18.4mph 4°C -4°C
17/03/19 21:20 EGPB 172120Z AUTO 34018KT 9999 SCT042/// 05/M02 Q1004 NNW (340°) 20.7mph 5°C -2°C
17/03/19 20:50 EGPB 172050Z AUTO 35018G29KT 9999 OVC044/// 05/M02 Q1003 N (350°) 20.7mph 33.4mph 5°C -2°C
17/03/19 20:20 EGPB 172020Z 35019KT 9999 FEW012 SCT035 05/M02 Q1003 NOSIG N (350°) 21.9mph 5°C -2°C
17/03/19 19:50 EGPB 171950Z 01019KT 9999 FEW012 FEW016CB SCT035 04/M00 Q1003 N (10°) 21.9mph 4°C 0°C
17/03/19 19:20 EGPB 171920Z 35018G29KT 9999 VCSH FEW016CB SCT030 05/M01 Q1002 VCSH N (350°) 20.7mph 33.4mph 5°C -1°C
17/03/19 18:50 EGPB 171850Z 35017G28KT 9999 FEW012 FEW016CB 05/M01 Q1001 NOSIG N (350°) 19.6mph 32.2mph 5°C -1°C
17/03/19 18:20 EGPB 171820Z 36022G33KT 9999 -SHRASN SCT016CB SCT030 05/M01 Q1001 TEMPO SHRA -SHRA -SHSN N (360°) 25.3mph 38.0mph 5°C -1°C
17/03/19 17:50 EGPB 171750Z 36023G33KT 9999 VCSH FEW014 SCT030 05/M01 Q1000 TEMPO SHRA VCSH N (360°) 26.5mph 38.0mph 5°C -1°C
17/03/19 17:20 EGPB 171720Z 01021G32KT 9999 -SHRA SCT020 SCT030 05/01 Q0999 -SHRA N (10°) 24.2mph 36.8mph 5°C 1°C
17/03/19 16:50 EGPB 171650Z 01022KT 9999 VCSH SCT020CB SCT030 04/01 Q0999 RESHRA TEMPO SHRA VCSH N (10°) 25.3mph 4°C 1°C
17/03/19 16:20 EGPB 171620Z 35021KT 9999 VCSH FEW013 FEW016CB SCT025 06/M00 Q0997 VCSH N (350°) 24.2mph 6°C 0°C
17/03/19 15:50 EGPB 171550Z 36022G34KT 9999 VCSH FEW014 FEW016CB SCT025 06/00 Q0997 TEMPO SHRA VCSH N (360°) 25.3mph 39.1mph 6°C 0°C
17/03/19 15:20 EGPB 171520Z 36026G36KT 9999 VCSH FEW016CB SCT028 06/M00 Q0996 TEMPO SHRA VCSH N (360°) 29.9mph 41.4mph 6°C 0°C
17/03/19 14:50 EGPB 171450Z 36026G39KT 9999 VCSH FEW014CB SCT025 06/M00 Q0995 TEMPO SHRA VCSH N (360°) 29.9mph 44.9mph 6°C 0°C
17/03/19 14:50 EGPB 171450Z 36026G39KT 9999 VCSH FEW014CB SCT025 06/M00 Q0995 VCSH N (360°) 29.9mph 44.9mph 6°C 0°C
17/03/19 13:50 EGPB 171350Z 35018KT 9999 VCSH SCT012CB SCT020 03/01 Q0994 RERA RESN VCSH SN N (350°) 20.7mph 3°C 1°C
17/03/19 13:20 EGPB 171320Z 36028G43KT 9999 VCSH SCT013CB SCT025 05/02 Q0993 RERA TEMPO SHRA BKN012 VCSH N (360°) 32.2mph 49.5mph 5°C 2°C
17/03/19 12:50 EGPB 171250Z 36026KT 9999 VCSH SCT013CB 05/02 Q0992 TEMPO SHRA VCSH N (360°) 29.9mph 5°C 2°C
17/03/19 12:20 EGPB 171220Z 36024KT 9999 VCSH FEW013CB 05/02 Q0991 TEMPO SHRA BKN012 VCSH N (360°) 27.6mph 5°C 2°C
17/03/19 11:50 EGPB 171150Z 36028G38KT 9999 VCSH FEW015CB SCT030 06/01 Q0991 TEMPO SHRA BKN012 VCSH N (360°) 32.2mph 43.7mph 6°C 1°C
17/03/19 11:20 EGPB 171120Z 36023G35KT 9999 VCSH FEW015CB SCT025 05/02 Q0990 TEMPO SHRA VCSH N (360°) 26.5mph 40.3mph 5°C 2°C
17/03/19 10:20 EGPB 171020Z 01019KT 9999 FEW015CB 06/01 Q0989 NOSIG N (10°) 21.9mph 6°C 1°C
17/03/19 09:50 EGPB 170950Z 36020KT 9999 -SHRA SCT012 SCT033 06/00 Q0988 TEMPO SHRA BKN012 -SHRA N (360°) 23.0mph 6°C 0°C
17/03/19 08:50 EGPB 170850Z AUTO 35015KT 9999 FEW021/// BKN048/// 05/01 Q0987 N (350°) 17.3mph 5°C 1°C
17/03/19 08:20 EGPB 170820Z AUTO 36017G29KT 9999 FEW018/// BKN034/// OVC048/// 05/01 Q0986 N (360°) 19.6mph 33.4mph 5°C 1°C
17/03/19 07:50 EGPB 170750Z AUTO 36018KT 9999 NCD 05/M00 Q0986 N (360°) 20.7mph 5°C 0°C
17/03/19 07:20 EGPB 170720Z AUTO 35014KT 9999 FEW031/// 04/M00 Q0985 N (350°) 16.1mph 4°C 0°C
17/03/19 06:50 EGPB 170650Z AUTO 36016KT 9999 SCT030/// BKN039/// 04/00 Q0985 N (360°) 18.4mph 4°C 0°C
17/03/19 06:20 EGPB 170620Z AUTO 01020KT 9999 OVC032/// 04/01 Q0984 N (10°) 23.0mph 4°C 1°C
17/03/19 05:50 EGPB 170550Z AUTO 36017KT 9999 FEW024/// SCT033/// 04/01 Q0984 N (360°) 19.6mph 4°C 1°C
17/03/19 05:20 EGPB 170520Z AUTO 35012KT 9999 BKN017/// BKN030/// BKN039/// 04/02 Q0983 N (350°) 13.8mph 4°C 2°C
17/03/19 04:50 EGPB 170450Z AUTO 35007KT 9999 -RA OVC013/// 03/02 Q0983 -RA N (350°) 8.1mph 3°C 2°C
17/03/19 04:20 EGPB 170420Z AUTO 36009KT 9999 -RA BKN015/// OVC039/// 03/02 Q0983 -RA N (360°) 10.4mph 3°C 2°C
17/03/19 03:50 EGPB 170350Z AUTO 35013KT 9999 -RA BKN018/// BKN035/// 03/02 Q0982 -RA N (350°) 15.0mph 3°C 2°C
17/03/19 03:20 EGPB 170320Z AUTO 36011KT 9999 -RA FEW011/// SCT021/// BKN038/// 04/02 Q0982 -RA N (360°) 12.7mph 4°C 2°C
17/03/19 02:50 EGPB 170250Z AUTO 35010KT 9999 SCT011/// BKN020/// 04/02 Q0982 N (350°) 11.5mph 4°C 2°C
17/03/19 02:20 EGPB 170220Z AUTO 34010KT 9999 FEW011/// 04/02 Q0981 NNW (340°) 11.5mph 4°C 2°C
17/03/19 01:50 EGPB 170150Z AUTO 35009KT 9999 NCD 03/02 Q0981 N (350°) 10.4mph 3°C 2°C
17/03/19 01:20 EGPB 170120Z AUTO 36012KT 9999 SCT006/// 03/02 Q0981 N (360°) 13.8mph 3°C 2°C
17/03/19 00:50 EGPB 170050Z AUTO 35008KT 9999 FEW021/// 03/02 Q0981 N (350°) 9.2mph 3°C 2°C
17/03/19 00:20 EGPB 170020Z AUTO 36009KT 9999 NCD 03/02 Q0982 N (360°) 10.4mph 3°C 2°C
16/03/19 23:50 EGPB 162350Z AUTO 36006KT 9999 NCD 03/02 Q0982 N (360°) 6.9mph 3°C 2°C
16/03/19 23:20 EGPB 162320Z AUTO 35004KT 9999 FEW009/// 03/02 Q0982 N (350°) 4.6mph 3°C 2°C
16/03/19 22:50 EGPB 162250Z AUTO 01005KT 9999 FEW009/// BKN015/// BKN034/// 03/02 Q0982 N (10°) 5.8mph 3°C 2°C
16/03/19 22:20 EGPB 162220Z AUTO 04006KT 9999 -RA BKN009/// 03/02 Q0982 -RA NE (40°) 6.9mph 3°C 2°C
16/03/19 21:50 EGPB 162150Z AUTO 05007KT 9999 -RA OVC008/// 03/02 Q0983 -RA NE (50°) 8.1mph 3°C 2°C
16/03/19 21:20 EGPB 162120Z AUTO 36004KT 9999 -RA BKN007/// OVC015/// 02/01 Q0983 -RA N (360°) 4.6mph 2°C 1°C
16/03/19 20:50 EGPB 162050Z AUTO 04006KT 6000 -RA BKN006/// BKN014/// OVC025/// 02/01 Q0983 -RA NE (40°) 6.9mph 2°C 1°C
16/03/19 20:20 EGPB 162020Z AUTO VRB01KT 9000 -RA OVC010/// 03/02 Q0983 -RA N (0°) 1.2mph 3°C 2°C
16/03/19 19:50 EGPB 161950Z AUTO VRB01KT 9999 -RA OVC010/// 03/02 Q0984 -RA N (0°) 1.2mph 3°C 2°C
16/03/19 19:20 EGPB 161920Z AUTO 15004KT 9999 -RA BKN013/// BKN025/// 03/02 Q0984 RERA -RA SSE (150°) 4.6mph 3°C 2°C
16/03/19 18:50 EGPB 161850Z AUTO 14010KT 9999 -RA FEW007/// SCT014/// BKN021/// 04/01 Q0984 -RA SE (140°) 11.5mph 4°C 1°C
16/03/19 18:20 EGPB 161820Z 01001KT 9999 BKN020 05/02 Q0984 NOSIG N (10°) 1.2mph 5°C 2°C
16/03/19 17:50 EGPB 161750Z 04001KT 9999 -RA SCT020 05/02 Q0984 -RA NE (40°) 1.2mph 5°C 2°C
16/03/19 17:20 EGPB 161720Z 00000KT 9999 FEW016 05/02 Q0984 N (0°) 5°C 2°C
16/03/19 16:50 EGPB 161650Z 00000KT 9999 SCT020 06/02 Q0985 N (0°) 6°C 2°C
16/03/19 16:20 EGPB 161620Z VRB01KT 9999 FEW020 06/01 Q0985 NOSIG N (0°) 1.2mph 6°C 1°C
16/03/19 15:50 EGPB 161550Z 19002KT 9999 FEW018 06/02 Q0985 NOSIG S (190°) 2.3mph 6°C 2°C
16/03/19 15:20 EGPB 161520Z 19003KT 9999 FEW020 06/02 Q0986 NOSIG S (190°) 3.5mph 6°C 2°C
16/03/19 14:50 EGPB 161450Z 20004KT 9999 FEW038 06/02 Q0986 NOSIG SSW (200°) 4.6mph 6°C 2°C
16/03/19 14:20 EGPB 161420Z 20004KT 9999 FEW015 06/03 Q0986 SSW (200°) 4.6mph 6°C 3°C
16/03/19 13:50 EGPB 161350Z 23005KT 9999 FEW014 SCT022 06/03 Q0987 NOSIG SW (230°) 5.8mph 6°C 3°C
16/03/19 13:20 EGPB 161320Z 23007KT 9999 FEW012 SCT022 06/02 Q0987 SW (230°) 8.1mph 6°C 2°C
16/03/19 12:20 EGPB 161220Z 22012KT 9999 VCSH FEW012CB 06/03 Q0988 VCSH SW (220°) 13.8mph 6°C 3°C
16/03/19 11:50 EGPB 161150Z 23009KT 9999 VCSH FEW012CB SCT025 07/03 Q0988 VCSH SW (230°) 10.4mph 7°C 3°C
16/03/19 11:20 EGPB 161120Z 23008KT 9999 VCSH FEW013CB SCT025 06/03 Q0988 VCSH SW (230°) 9.2mph 6°C 3°C
16/03/19 10:50 EGPB 161050Z 26009KT 9999 VCSH SCT012 SCT020 06/03 Q0988 VCSH W (260°) 10.4mph 6°C 3°C
16/03/19 10:20 EGPB 161020Z 26004KT 9999 VCSH FEW015CB BKN031 06/03 Q0989 VCSH W (260°) 4.6mph 6°C 3°C
16/03/19 09:50 EGPB 160950Z 25006KT 9999 VCSH FEW012CB SCT037 06/03 Q0989 NOSIG VCSH WSW (250°) 6.9mph 6°C 3°C
16/03/19 09:20 EGPB 160920Z 23005KT 9999 FEW012CB SCT038 06/02 Q0989 SW (230°) 5.8mph 6°C 2°C
16/03/19 08:50 EGPB 160850Z 25013KT 9999 -RA SCT013CB SCT022 06/03 Q0989 -RA WSW (250°) 15.0mph 6°C 3°C
16/03/19 08:20 EGPB 160820Z 25007KT 9999 VCSH FEW012CB 06/03 Q0989 VCSH WSW (250°) 8.1mph 6°C 3°C
16/03/19 07:50 EGPB 160750Z 26008KT 9999 VCSH FEW013CB SCT025 06/03 Q0989 VCSH W (260°) 9.2mph 6°C 3°C
16/03/19 07:20 EGPB 160720Z 25012KT 9999 VCSH FEW013CB SCT023 06/03 Q0989 VCSH WSW (250°) 13.8mph 6°C 3°C
16/03/19 06:50 EGPB 160650Z 28003KT 9999 VCSH SCT013CB SCT032 05/02 Q0990 VCSH W (280°) 3.5mph 5°C 2°C
16/03/19 06:20 EGPB 160620Z 28013KT 9999 -SHRA SCT015 SCT032 06/03 Q0990 RERA TEMPO SHRA BKN012 -SHRA W (280°) 15.0mph 6°C 3°C
16/03/19 05:50 EGPB 160550Z AUTO 28009KT 9999 FEW009/// BKN020/// BKN034/// 05/03 Q0990 RERA W (280°) 10.4mph 5°C 3°C
16/03/19 05:20 EGPB 160520Z AUTO 27014KT 9999 FEW022/// 06/03 Q0990 W (270°) 16.1mph 6°C 3°C
16/03/19 04:50 EGPB 160450Z AUTO 26014KT 9999 SCT017/// BKN034/// 06/03 Q0989 W (260°) 16.1mph 6°C 3°C
16/03/19 04:20 EGPB 160420Z AUTO 27014KT 9999 SCT030/// 06/03 Q0989 W (270°) 16.1mph 6°C 3°C
16/03/19 03:20 EGPB 160320Z AUTO 26012KT 9999 FEW018/// BKN032/// 05/03 Q0990 W (260°) 13.8mph 5°C 3°C
16/03/19 02:50 EGPB 160250Z AUTO 27016KT 9999 BKN021/// 06/03 Q0990 W (270°) 18.4mph 6°C 3°C
16/03/19 02:20 EGPB 160220Z AUTO 29014KT 9999 FEW009/// BKN026/// 06/03 Q0990 RERA WNW (290°) 16.1mph 6°C 3°C
16/03/19 01:50 EGPB 160150Z AUTO 28016KT 9999 BKN026/// 06/03 Q0990 W (280°) 18.4mph 6°C 3°C
16/03/19 01:20 EGPB 160120Z AUTO 29015KT 9999 FEW026/// 06/02 Q0990 WNW (290°) 17.3mph 6°C 2°C
16/03/19 00:50 EGPB 160050Z AUTO 29013G24KT 9999 SCT016/// BKN031/// BKN038/// 06/02 Q0990 RERA WNW (290°) 15.0mph 27.6mph 6°C 2°C
16/03/19 00:20 EGPB 160020Z AUTO 27016KT 9999 BKN022/// 06/03 Q0990 W (270°) 18.4mph 6°C 3°C
15/03/19 23:50 EGPB 152350Z AUTO 28014KT 9999 FEW022/// SCT038/// 06/02 Q0990 W (280°) 16.1mph 6°C 2°C
15/03/19 23:20 EGPB 152320Z AUTO 28013KT 9999 FEW012/// SCT045/// 06/03 Q0989 RERA W (280°) 15.0mph 6°C 3°C
15/03/19 22:50 EGPB 152250Z AUTO 29014KT 9999 SCT021/// 06/02 Q0989 WNW (290°) 16.1mph 6°C 2°C